Time;durP1;ratioP1;P1;durP2;ratioP2;P2;SDS_P1;SDS_P2;PMS_P1;PMS_P2;Temp;Humidity;BMP_temperature;BMP_pressure;BME280_temperature;BME280_humidity;BME280_pressure;Samples;Min_cycle;Max_cycle;Signal;HPM_P1;HPM_P2
2022/07/08 00:00:22;;;;;;;3.90;0.60;;;;;21.50;102898.00;;;;5031723;28;20224;-80
2022/07/08 00:02:49;;;;;;;2.35;0.60;;;;;21.50;102905.00;;;;5031020;28;20682;-82
2022/07/08 00:05:18;;;;;;;2.97;0.60;;;;;21.50;102899.00;;;;5028054;28;20203;-81
2022/07/08 00:07:45;;;;;;;3.25;0.70;;;;;21.50;102899.00;;;;5027416;28;20204;-82
2022/07/08 00:10:12;;;;;;;2.67;1.20;;;;;21.50;102900.00;;;;5029746;28;20204;-82
2022/07/08 00:12:40;;;;;;;3.40;0.77;;;;;21.50;102896.00;;;;5030110;28;20247;-82
2022/07/08 00:15:09;;;;;;;4.10;0.60;;;;;21.50;102904.00;;;;5030443;28;20203;-81
2022/07/08 00:17:36;;;;;;;4.03;0.55;;;;;21.50;102908.00;;;;5031166;28;20192;-81
2022/07/08 00:20:06;;;;;;;4.95;0.85;;;;;21.50;102909.00;;;;5029210;28;20202;-81
2022/07/08 00:22:35;;;;;;;1.05;0.40;;;;;21.50;102909.00;;;;5030125;28;20195;-81
2022/07/08 00:25:03;;;;;;;4.72;0.75;;;;;21.50;102907.00;;;;5029756;28;20204;-81
2022/07/08 00:27:31;;;;;;;1.17;0.57;;;;;21.50;102908.00;;;;5031480;28;20203;-80
2022/07/08 00:29:59;;;;;;;5.35;0.70;;;;;21.40;102910.00;;;;5028197;28;20200;-81
2022/07/08 00:32:26;;;;;;;2.05;0.80;;;;;21.50;102907.00;;;;5030687;28;20215;-81
2022/07/08 00:34:54;;;;;;;1.02;0.50;;;;;21.40;102905.00;;;;5030169;28;20609;-81
2022/07/08 00:37:21;;;;;;;2.03;0.60;;;;;21.40;102902.00;;;;5031067;28;20315;-80
2022/07/08 00:39:50;;;;;;;1.50;0.57;;;;;21.40;102905.00;;;;5030202;28;20214;-81
2022/07/08 00:42:17;;;;;;;1.77;0.40;;;;;21.40;102903.00;;;;5030985;28;20663;-81
2022/07/08 00:44:45;;;;;;;4.38;0.55;;;;;21.40;102902.00;;;;5033397;28;20623;-81
2022/07/08 00:47:12;;;;;;;2.10;0.50;;;;;21.40;102903.00;;;;5034166;28;20203;-81
2022/07/08 00:49:40;;;;;;;3.15;0.63;;;;;21.40;102900.00;;;;5032123;28;21075;-82
2022/07/08 00:52:08;;;;;;;2.40;0.68;;;;;21.40;102891.00;;;;5031342;28;20246;-82
2022/07/08 00:54:37;;;;;;;3.08;0.75;;;;;21.40;102890.00;;;;5032660;28;20317;-81
2022/07/08 00:57:06;;;;;;;3.08;0.77;;;;;21.30;102899.00;;;;5032905;28;20224;-81
2022/07/08 00:59:34;;;;;;;1.35;0.68;;;;;21.30;102909.00;;;;5036029;28;20239;-82
2022/07/08 01:02:01;;;;;;;4.72;0.55;;;;;21.30;102907.00;;;;5031586;28;20567;-81
2022/07/08 01:04:30;;;;;;;2.45;0.70;;;;;21.30;102911.00;;;;5031437;28;20210;-82
2022/07/08 01:06:58;;;;;;;2.45;0.60;;;;;21.20;102911.00;;;;5036882;28;20541;-82
2022/07/08 01:09:25;;;;;;;1.58;0.47;;;;;21.20;102928.00;;;;5033519;28;20579;-81
2022/07/08 01:11:53;;;;;;;5.15;1.13;;;;;21.20;102924.00;;;;5034749;28;22569;-81
2022/07/08 01:14:21;;;;;;;2.50;0.40;;;;;21.10;102924.00;;;;5033074;28;20203;-82
2022/07/08 01:16:49;;;;;;;4.15;0.85;;;;;21.10;102922.00;;;;5033853;28;20211;-81
2022/07/08 01:19:16;;;;;;;2.25;0.77;;;;;21.10;102919.00;;;;5029604;28;20196;-82
2022/07/08 01:21:45;;;;;;;4.13;0.80;;;;;21.10;102918.00;;;;5032197;28;20200;-81
2022/07/08 01:24:12;;;;;;;1.73;0.57;;;;;21.00;102918.00;;;;5032270;28;20206;-81
2022/07/08 01:26:40;;;;;;;2.22;0.90;;;;;21.00;102914.00;;;;5032345;28;20199;-82
2022/07/08 01:29:07;;;;;;;2.42;0.65;;;;;21.00;102911.00;;;;5033658;28;20670;-82
2022/07/08 01:31:34;;;;;;;4.18;0.93;;;;;21.00;102909.00;;;;5033069;28;20227;-82
2022/07/08 01:34:02;;;;;;;3.65;0.65;;;;;21.00;102913.00;;;;5030153;28;20220;-82
2022/07/08 01:36:30;;;;;;;3.42;0.80;;;;;21.00;102912.00;;;;5032603;28;20224;-82
2022/07/08 01:38:58;;;;;;;2.33;0.50;;;;;20.90;102911.00;;;;5031922;28;20208;-80
2022/07/08 01:41:26;;;;;;;1.98;0.80;;;;;20.90;102907.00;;;;5030490;28;20203;-81
2022/07/08 01:43:53;;;;;;;2.00;0.60;;;;;20.90;102911.00;;;;5033930;28;20193;-82
2022/07/08 01:46:20;;;;;;;1.42;0.50;;;;;20.90;102906.00;;;;5032166;28;20199;-82
2022/07/08 01:48:48;;;;;;;1.92;0.40;;;;;20.90;102910.00;;;;5029188;28;20199;-81
2022/07/08 01:51:15;;;;;;;2.58;1.00;;;;;20.80;102902.00;;;;5032985;28;20568;-81
2022/07/08 01:53:42;;;;;;;2.42;0.55;;;;;20.80;102904.00;;;;5033820;28;20223;-80
2022/07/08 01:56:11;;;;;;;1.23;0.50;;;;;20.70;102901.00;;;;5035085;28;20224;-81
2022/07/08 01:58:38;;;;;;;4.82;0.70;;;;;20.70;102901.00;;;;5038323;28;20203;-81
2022/07/08 02:01:05;;;;;;;2.25;0.70;;;;;20.70;102905.00;;;;5033225;28;20201;-80
2022/07/08 02:03:33;;;;;;;1.75;0.57;;;;;20.60;102900.00;;;;5038176;28;20202;-81
2022/07/08 02:06:00;;;;;;;2.97;1.38;;;;;20.60;102896.00;;;;5031305;28;20201;-81
2022/07/08 02:08:27;;;;;;;2.30;0.73;;;;;20.60;102900.00;;;;5035331;28;20187;-81
2022/07/08 02:13:41;;;;;;;2.15;0.60;;;;;20.50;102909.00;;;;5036520;28;20373;-81
2022/07/08 02:16:08;;;;;;;2.20;0.43;;;;;20.50;102908.00;;;;5041600;28;20201;-81
2022/07/08 02:18:36;;;;;;;2.20;0.70;;;;;20.40;102912.00;;;;5030413;28;20200;-81
2022/07/08 02:21:03;;;;;;;1.73;0.70;;;;;20.40;102909.00;;;;5034073;28;20208;-82
2022/07/08 02:23:30;;;;;;;3.40;0.95;;;;;20.30;102911.00;;;;5046601;28;20198;-82
2022/07/08 02:25:58;;;;;;;1.65;0.68;;;;;20.30;102913.00;;;;5042123;28;20208;-81
2022/07/08 02:28:26;;;;;;;2.35;0.70;;;;;20.30;102908.00;;;;5035119;28;20203;-81
2022/07/08 02:30:54;;;;;;;3.83;0.73;;;;;20.20;102909.00;;;;5033032;28;20200;-82
2022/07/08 02:33:22;;;;;;;3.67;0.70;;;;;20.20;102906.00;;;;5030021;28;20621;-82
2022/07/08 02:35:49;;;;;;;3.72;0.75;;;;;20.10;102911.00;;;;5032229;28;20206;-81
2022/07/08 02:38:16;;;;;;;2.92;0.70;;;;;20.10;102912.00;;;;5031656;28;20227;-81
2022/07/08 02:40:43;;;;;;;2.38;0.70;;;;;20.10;102913.00;;;;5029891;28;20192;-81
2022/07/08 02:43:11;;;;;;;1.88;0.65;;;;;20.00;102911.00;;;;5029420;28;20211;-81
2022/07/08 02:45:38;;;;;;;0.85;0.55;;;;;20.00;102906.00;;;;5027267;28;20231;-81
2022/07/08 02:48:08;;;;;;;1.75;0.57;;;;;19.90;102901.00;;;;5029128;28;20200;-81
2022/07/08 02:50:35;;;;;;;2.78;0.90;;;;;19.90;102911.00;;;;5029923;28;21187;-81
2022/07/08 02:53:03;;;;;;;4.22;0.80;;;;;19.90;102900.00;;;;5028322;28;20223;-81
2022/07/08 02:55:30;;;;;;;1.52;0.40;;;;;19.90;102905.00;;;;5027946;28;20230;-81
2022/07/08 02:57:57;;;;;;;1.38;0.60;;;;;19.80;102899.00;;;;5030986;28;20193;-81
2022/07/08 03:00:25;;;;;;;2.28;0.60;;;;;19.80;102898.00;;;;5030731;28;20195;-81
2022/07/08 03:02:52;;;;;;;0.90;0.63;;;;;19.70;102898.00;;;;5034337;28;20286;-82
2022/07/08 03:05:21;;;;;;;2.13;0.70;;;;;19.70;102898.00;;;;5033486;28;20195;-81
2022/07/08 03:07:48;;;;;;;1.95;0.57;;;;;19.70;102890.00;;;;5030154;28;21962;-82
2022/07/08 03:10:16;;;;;;;3.40;0.68;;;;;19.60;102895.00;;;;5028466;28;20207;-82
2022/07/08 03:12:43;;;;;;;1.48;0.52;;;;;19.60;102905.00;;;;5033449;28;20963;-82
2022/07/08 03:15:10;;;;;;;1.85;0.57;;;;;19.60;102905.00;;;;5030956;28;20201;-82
2022/07/08 03:17:38;;;;;;;3.42;0.82;;;;;19.60;102897.00;;;;5029883;28;20208;-80
2022/07/08 03:20:06;;;;;;;2.35;0.70;;;;;19.50;102896.00;;;;5028557;28;20192;-81
2022/07/08 03:22:36;;;;;;;3.22;0.93;;;;;19.50;102899.00;;;;5031529;28;20196;-80
2022/07/08 03:25:04;;;;;;;2.03;0.75;;;;;19.50;102905.00;;;;5045661;28;20195;-80
2022/07/08 03:27:31;;;;;;;2.05;0.77;;;;;19.40;102905.00;;;;5033742;28;20558;-81
2022/07/08 03:30:00;;;;;;;2.15;1.00;;;;;19.40;102902.00;;;;5030626;28;20210;-81
2022/07/08 03:32:28;;;;;;;2.92;0.75;;;;;19.40;102901.00;;;;5027883;28;20195;-81
2022/07/08 03:34:56;;;;;;;3.33;0.95;;;;;19.30;102907.00;;;;5033205;28;20232;-81
2022/07/08 03:37:24;;;;;;;2.38;0.90;;;;;19.30;102909.00;;;;5031511;28;20220;-81
2022/07/08 03:39:53;;;;;;;1.83;0.82;;;;;19.30;102919.00;;;;5030077;28;20614;-81
2022/07/08 03:42:19;;;;;;;2.15;0.90;;;;;19.30;102913.00;;;;5028022;28;20215;-81
2022/07/08 03:44:47;;;;;;;1.00;0.63;;;;;19.30;102919.00;;;;5029645;28;20222;-80
2022/07/08 03:47:14;;;;;;;2.00;0.70;;;;;19.20;102913.00;;;;5027553;28;20196;-81
2022/07/08 03:49:42;;;;;;;3.65;0.85;;;;;19.20;102915.00;;;;5027031;28;20208;-81
2022/07/08 03:52:09;;;;;;;2.08;0.85;;;;;19.20;102910.00;;;;5033527;28;20200;-81
2022/07/08 03:54:36;;;;;;;3.63;1.33;;;;;19.20;102911.00;;;;5037208;28;20244;-81
2022/07/08 03:57:06;;;;;;;1.67;0.82;;;;;19.10;102907.00;;;;5029780;28;20200;-81
2022/07/08 03:59:33;;;;;;;2.92;0.98;;;;;19.10;102905.00;;;;5031524;28;20192;-81
2022/07/08 04:02:00;;;;;;;2.42;0.90;;;;;19.10;102910.00;;;;5029801;28;20204;-81
2022/07/08 04:04:28;;;;;;;3.00;1.30;;;;;19.10;102915.00;;;;5028695;28;20319;-82
2022/07/08 04:06:55;;;;;;;3.92;1.17;;;;;19.10;102913.00;;;;5029731;28;20273;-81
2022/07/08 04:09:22;;;;;;;5.07;1.10;;;;;19.10;102916.00;;;;5029367;28;20196;-81
2022/07/08 04:11:50;;;;;;;4.80;1.05;;;;;19.10;102914.00;;;;5029588;28;20200;-81
2022/07/08 04:14:18;;;;;;;1.92;0.80;;;;;19.10;102914.00;;;;5031236;28;20223;-81
2022/07/08 04:16:46;;;;;;;8.02;1.25;;;;;19.10;102917.00;;;;5034690;28;20204;-81
2022/07/08 04:19:13;;;;;;;2.03;0.80;;;;;19.10;102925.00;;;;5033165;28;20200;-82
2022/07/08 04:21:40;;;;;;;2.20;1.05;;;;;19.10;102919.00;;;;5033194;28;20200;-82
2022/07/08 04:24:09;;;;;;;1.90;0.80;;;;;19.20;102927.00;;;;5034605;28;20265;-82
2022/07/08 04:26:36;;;;;;;3.72;1.02;;;;;19.20;102931.00;;;;5033879;28;20200;-82
2022/07/08 04:29:03;;;;;;;3.03;1.30;;;;;19.20;102926.00;;;;5032870;28;20210;-81
2022/07/08 04:31:32;;;;;;;3.03;0.70;;;;;19.20;102933.00;;;;5030969;28;20200;-81
2022/07/08 04:34:00;;;;;;;2.92;0.90;;;;;19.20;102934.00;;;;5032881;28;20220;-81
2022/07/08 04:36:27;;;;;;;1.75;0.93;;;;;19.30;102928.00;;;;5029636;28;20222;-81
2022/07/08 04:38:54;;;;;;;4.63;1.65;;;;;19.30;102937.00;;;;5029991;28;20203;-81
2022/07/08 04:41:22;;;;;;;2.78;0.95;;;;;19.30;102942.00;;;;5033284;28;20196;-82
2022/07/08 04:43:49;;;;;;;2.75;1.35;;;;;19.30;102948.00;;;;5034886;28;20197;-82
2022/07/08 04:46:16;;;;;;;0.73;0.70;;;;;19.40;102952.00;;;;5029764;28;20204;-82
2022/07/08 04:48:45;;;;;;;2.72;1.40;;;;;19.40;102953.00;;;;5031250;28;20193;-82
2022/07/08 04:51:12;;;;;;;2.55;1.50;;;;;19.50;102958.00;;;;5033999;28;22158;-82
2022/07/08 04:53:42;;;;;;;1.90;0.80;;;;;19.50;102956.00;;;;5034509;28;20769;-82
2022/07/08 04:56:10;;;;;;;2.97;1.10;;;;;19.50;102959.00;;;;5031840;28;20804;-82
2022/07/08 04:58:37;;;;;;;1.52;0.88;;;;;19.60;102961.00;;;;5032579;28;20196;-80
2022/07/08 05:01:04;;;;;;;1.83;0.93;;;;;19.60;102966.00;;;;5034676;28;20203;-80
2022/07/08 05:03:32;;;;;;;3.50;1.08;;;;;19.60;102967.00;;;;5029995;28;20208;-81
2022/07/08 05:06:00;;;;;;;1.55;0.85;;;;;19.70;102971.00;;;;5032402;28;20200;-82
2022/07/08 05:08:28;;;;;;;1.30;0.57;;;;;19.70;102976.00;;;;5032633;28;20199;-82
2022/07/08 05:10:55;;;;;;;3.53;0.80;;;;;19.80;102974.00;;;;5036230;28;20193;-82
2022/07/08 05:13:22;;;;;;;2.03;0.90;;;;;19.80;102976.00;;;;5032671;28;20202;-82
2022/07/08 05:15:50;;;;;;;2.05;0.90;;;;;19.90;102979.00;;;;5029409;28;20196;-82
2022/07/08 05:18:17;;;;;;;2.92;0.98;;;;;20.00;102975.00;;;;5034809;28;20196;-81
2022/07/08 05:20:44;;;;;;;4.10;1.60;;;;;20.00;102983.00;;;;5036106;28;20199;-78
2022/07/08 05:23:13;;;;;;;3.25;0.70;;;;;20.10;102993.00;;;;5032154;28;20242;-79
2022/07/08 05:25:40;;;;;;;4.78;0.80;;;;;20.20;102985.00;;;;5034203;28;20203;-79
2022/07/08 05:28:08;;;;;;;2.35;1.00;;;;;20.20;102984.00;;;;5042424;28;20203;-79
2022/07/08 05:30:35;;;;;;;3.17;0.95;;;;;20.30;102988.00;;;;5041556;28;20214;-79
2022/07/08 05:33:03;;;;;;;2.13;1.00;;;;;20.40;102985.00;;;;5036230;28;20203;-78
2022/07/08 05:35:30;;;;;;;2.85;0.90;;;;;20.50;102984.00;;;;5032814;28;20720;-79
2022/07/08 05:37:58;;;;;;;6.90;1.10;;;;;20.50;102988.00;;;;5039459;28;20223;-79
2022/07/08 05:40:29;;;;;;;5.07;1.48;;;;;20.60;102991.00;;;;5047394;28;20199;-78
2022/07/08 05:42:56;;;;;;;5.20;0.95;;;;;20.70;103000.00;;;;5044663;28;20214;-79
2022/07/08 05:45:24;;;;;;;2.95;0.70;;;;;20.90;103001.00;;;;5038915;28;20587;-80
2022/07/08 05:47:51;;;;;;;1.52;0.70;;;;;21.00;102993.00;;;;5034189;28;20203;-80
2022/07/08 05:50:18;;;;;;;3.15;1.00;;;;;21.10;102999.00;;;;5044117;28;20200;-81
2022/07/08 05:52:46;;;;;;;2.88;1.20;;;;;21.10;103007.00;;;;5030654;28;20196;-81
2022/07/08 05:55:13;;;;;;;3.95;1.02;;;;;21.20;103005.00;;;;5033237;28;20706;-79
2022/07/08 05:57:41;;;;;;;1.27;0.73;;;;;21.30;103006.00;;;;5035175;28;20204;-81
2022/07/08 06:00:10;;;;;;;1.75;0.77;;;;;21.30;102997.00;;;;5040748;28;20200;-78
2022/07/08 06:02:38;;;;;;;6.85;0.93;;;;;21.40;103001.00;;;;5034099;28;20198;-78
2022/07/08 06:05:06;;;;;;;2.80;0.77;;;;;21.50;102999.00;;;;5039091;28;20195;-78
2022/07/08 06:07:33;;;;;;;4.22;0.93;;;;;21.60;103001.00;;;;5041810;28;20196;-77
2022/07/08 06:10:01;;;;;;;3.33;1.20;;;;;21.60;103005.00;;;;5045586;28;20311;-78
2022/07/08 06:12:28;;;;;;;1.92;0.68;;;;;21.70;103012.00;;;;5046053;28;20200;-78
2022/07/08 06:14:57;;;;;;;5.50;1.17;;;;;21.70;103007.00;;;;5039017;28;20223;-78
2022/07/08 06:17:24;;;;;;;2.90;1.02;;;;;21.80;103007.00;;;;5031558;28;20216;-79
2022/07/08 06:19:51;;;;;;;4.03;1.02;;;;;21.80;103005.00;;;;5029882;28;20207;-78
2022/07/08 06:22:19;;;;;;;1.95;0.88;;;;;21.80;103004.00;;;;5046608;28;20191;-77
2022/07/08 06:24:46;;;;;;;3.10;0.90;;;;;21.90;103004.00;;;;5049445;28;20653;-78
2022/07/08 06:27:14;;;;;;;3.00;0.80;;;;;21.90;103010.00;;;;5048140;28;20212;-78
2022/07/08 06:29:41;;;;;;;4.78;1.10;;;;;22.00;103010.00;;;;5040744;28;20192;-78
2022/07/08 06:32:10;;;;;;;1.80;1.10;;;;;22.00;103011.00;;;;5050003;28;20196;-79
2022/07/08 06:34:37;;;;;;;3.50;1.13;;;;;22.10;103010.00;;;;5033391;28;20223;-79
2022/07/08 06:37:05;;;;;;;2.88;0.68;;;;;22.10;103016.00;;;;5040713;28;20216;-78
2022/07/08 06:39:32;;;;;;;5.70;1.48;;;;;22.20;103012.00;;;;5045778;28;20203;-79
2022/07/08 06:42:00;;;;;;;5.63;0.70;;;;;22.20;103010.00;;;;5029692;28;20204;-79
2022/07/08 06:44:27;;;;;;;1.83;0.63;;;;;22.20;103013.00;;;;5031144;28;20208;-79
2022/07/08 06:46:54;;;;;;;3.65;0.85;;;;;22.30;103009.00;;;;5032195;28;20204;-79
2022/07/08 06:49:23;;;;;;;3.85;0.80;;;;;22.30;103020.00;;;;5036324;28;20207;-79
2022/07/08 06:51:50;;;;;;;3.22;0.98;;;;;22.40;103014.00;;;;5042468;28;20210;-79
2022/07/08 06:57:02;;;;;;;2.67;0.82;;;;;22.50;103022.00;;;;5038632;28;20207;-79
2022/07/08 06:59:29;;;;;;;4.68;0.77;;;;;22.50;103020.00;;;;5033760;28;20211;-79
2022/07/08 07:01:57;;;;;;;6.32;1.10;;;;;22.60;103020.00;;;;5032541;28;20192;-79
2022/07/08 07:04:26;;;;;;;1.38;0.57;;;;;22.60;103023.00;;;;5046921;28;20208;-79
2022/07/08 07:06:53;;;;;;;1.90;0.57;;;;;22.70;103017.00;;;;5030207;28;20215;-79
2022/07/08 07:09:21;;;;;;;2.90;0.80;;;;;22.80;103023.00;;;;5048196;28;20206;-78
2022/07/08 07:11:48;;;;;;;3.72;1.30;;;;;22.80;103019.00;;;;5028424;28;20188;-79
2022/07/08 07:14:15;;;;;;;5.07;1.23;;;;;22.90;103021.00;;;;5031292;28;20223;-79
2022/07/08 07:16:43;;;;;;;2.30;0.65;;;;;23.00;103018.00;;;;5042975;28;20200;-78
2022/07/08 07:19:11;;;;;;;2.55;1.00;;;;;23.00;103013.00;;;;5048296;28;20191;-78
2022/07/08 07:21:39;;;;;;;3.35;1.13;;;;;23.10;103003.00;;;;5030003;28;20686;-79
2022/07/08 07:24:07;;;;;;;4.47;0.60;;;;;23.30;103020.00;;;;5033780;28;20740;-78
2022/07/08 07:26:36;;;;;;;4.20;0.90;;;;;23.30;103014.00;;;;5048355;28;20196;-78
2022/07/08 07:29:04;;;;;;;5.07;0.80;;;;;23.40;103012.00;;;;5046903;28;20950;-79
2022/07/08 07:31:31;;;;;;;3.17;1.00;;;;;23.50;103013.00;;;;5044413;28;20206;-79
2022/07/08 07:33:59;;;;;;;4.72;0.90;;;;;23.60;103017.00;;;;5046473;28;20202;-79
2022/07/08 07:36:26;;;;;;;5.93;1.45;;;;;23.70;103019.00;;;;5044604;28;20200;-79
2022/07/08 07:38:55;;;;;;;3.90;1.00;;;;;23.80;103029.00;;;;5049165;28;20207;-79
2022/07/08 07:41:22;;;;;;;3.30;0.90;;;;;23.90;103011.00;;;;5040561;28;20215;-78
2022/07/08 07:43:49;;;;;;;10.05;1.08;;;;;23.90;103029.00;;;;5028690;28;20566;-78
2022/07/08 07:46:17;;;;;;;2.30;0.90;;;;;24.00;103011.00;;;;5029744;28;20199;-79
2022/07/08 07:48:45;;;;;;;4.38;1.15;;;;;24.10;103012.00;;;;5029611;28;20216;-79
2022/07/08 07:51:12;;;;;;;2.75;0.85;;;;;24.20;103005.00;;;;5034951;28;20729;-79
2022/07/08 07:53:40;;;;;;;3.88;0.90;;;;;24.30;103009.00;;;;5043224;28;20561;-80
2022/07/08 07:56:09;;;;;;;3.17;0.90;;;;;24.50;103010.00;;;;5027539;28;20737;-80
2022/07/08 07:58:38;;;;;;;3.78;0.82;;;;;24.60;103008.00;;;;5030106;28;20196;-78
2022/07/08 08:01:05;;;;;;;4.03;1.05;;;;;24.70;103011.00;;;;5038531;28;20867;-79
2022/07/08 08:03:33;;;;;;;2.63;0.90;;;;;24.80;103003.00;;;;5045643;28;20204;-79
2022/07/08 08:06:01;;;;;;;2.05;0.77;;;;;24.90;103014.00;;;;5048017;28;20195;-79
2022/07/08 08:08:31;;;;;;;3.20;1.30;;;;;25.10;103017.00;;;;5048225;28;20677;-78
2022/07/08 08:11:00;;;;;;;4.25;0.80;;;;;25.10;103019.00;;;;5036872;28;20262;-78
2022/07/08 08:13:29;;;;;;;5.03;1.33;;;;;25.20;103018.00;;;;5030259;28;20988;-79
2022/07/08 08:15:57;;;;;;;4.13;0.85;;;;;25.30;103014.00;;;;5035271;28;20246;-79
2022/07/08 08:18:24;;;;;;;4.10;1.00;;;;;25.40;103015.00;;;;5028563;28;20212;-78
2022/07/08 08:20:51;;;;;;;5.95;1.08;;;;;25.50;103011.00;;;;5035756;28;20203;-79
2022/07/08 08:23:19;;;;;;;3.92;0.95;;;;;25.60;103012.00;;;;5036233;28;20243;-79
2022/07/08 08:25:46;;;;;;;3.75;0.60;;;;;25.60;103016.00;;;;5028606;28;20192;-79
2022/07/08 08:28:14;;;;;;;4.35;1.17;;;;;25.60;103021.00;;;;5032739;28;20200;-79
2022/07/08 08:30:42;;;;;;;2.83;1.10;;;;;25.70;103022.00;;;;5039487;28;20192;-79
2022/07/08 08:33:10;;;;;;;4.55;1.40;;;;;25.70;103025.00;;;;5028996;28;20211;-79
2022/07/08 08:35:37;;;;;;;4.03;1.10;;;;;25.80;103022.00;;;;5028772;28;20311;-79
2022/07/08 08:38:04;;;;;;;4.78;1.13;;;;;25.80;103019.00;;;;5034606;28;20598;-78
2022/07/08 08:40:32;;;;;;;1.40;0.57;;;;;25.90;103017.00;;;;5042223;28;20211;-77
2022/07/08 08:43:00;;;;;;;6.82;0.98;;;;;25.90;103013.00;;;;5028980;28;20253;-78
2022/07/08 08:45:28;;;;;;;2.42;0.70;;;;;26.00;103025.00;;;;5041745;28;20199;-79
2022/07/08 08:48:03;;;;;;;5.10;0.95;;;;;26.00;103024.00;;;;5043613;28;20207;-79
2022/07/08 08:53:20;;;;;;;2.90;1.00;;;;;26.20;103023.00;;;;5027903;28;20422;-79
2022/07/08 08:55:48;;;;;;;3.67;0.60;;;;;26.20;103022.00;;;;5027787;28;20236;-79
2022/07/08 08:58:16;;;;;;;2.35;0.98;;;;;26.30;103022.00;;;;5028544;28;20208;-78
2022/07/08 09:00:44;;;;;;;3.28;0.90;;;;;26.40;103019.00;;;;5036112;28;20200;-79
2022/07/08 09:03:13;;;;;;;2.38;0.70;;;;;26.40;103017.00;;;;5048355;28;20282;-78
2022/07/08 09:05:40;;;;;;;3.08;0.70;;;;;26.50;103022.00;;;;5050669;28;20196;-79
2022/07/08 09:08:08;;;;;;;4.82;0.70;;;;;26.50;103019.00;;;;5031458;28;20204;-77
2022/07/08 09:10:35;;;;;;;2.70;0.98;;;;;26.60;103016.00;;;;5036109;28;20197;-78
2022/07/08 09:13:08;;;;;;;3.00;0.73;;;;;26.60;103010.00;;;;5043225;28;20201;-78
2022/07/08 09:15:37;;;;;;;2.97;0.73;;;;;26.70;103012.00;;;;5037491;28;20588;-78
2022/07/08 09:18:06;;;;;;;3.72;0.90;;;;;26.90;103016.00;;;;5051358;28;20188;-78
2022/07/08 09:20:42;;;;;;;2.17;0.50;;;;;27.00;103018.00;;;;5049539;28;20202;-77
2022/07/08 09:23:14;;;;;;;2.67;0.47;;;;;27.20;103015.00;;;;5047539;28;20204;-78
2022/07/08 09:25:42;;;;;;;1.63;0.88;;;;;27.30;103011.00;;;;5031700;28;20204;-78
2022/07/08 09:28:10;;;;;;;2.58;0.82;;;;;27.50;103017.00;;;;5040692;28;20230;-79
2022/07/08 09:30:39;;;;;;;4.35;0.75;;;;;27.60;103017.00;;;;5045604;28;20196;-79
2022/07/08 09:33:06;;;;;;;0.80;0.65;;;;;27.80;103008.00;;;;5030622;28;20200;-79
2022/07/08 09:35:36;;;;;;;1.63;0.57;;;;;27.90;103005.00;;;;5038983;28;20281;-78
2022/07/08 09:38:06;;;;;;;5.75;1.10;;;;;28.10;103015.00;;;;5031525;28;20270;-78
2022/07/08 09:40:35;;;;;;;1.58;0.73;;;;;28.20;103022.00;;;;5030524;28;20208;-79
2022/07/08 09:43:03;;;;;;;1.80;0.68;;;;;28.30;103013.00;;;;5036429;28;20203;-79
2022/07/08 09:45:34;;;;;;;2.17;0.57;;;;;28.30;103008.00;;;;5031352;28;20211;-79
2022/07/08 09:48:05;;;;;;;4.60;0.80;;;;;28.50;103016.00;;;;5035042;28;20207;-79
2022/07/08 09:50:37;;;;;;;1.85;0.65;;;;;28.60;103012.00;;;;5031104;28;20203;-78
2022/07/08 09:53:17;;;;;;;3.67;0.90;;;;;28.60;103019.00;;;;5030075;28;20602;-77
2022/07/08 09:55:47;;;;;;;1.85;0.65;;;;;28.80;103022.00;;;;5045971;28;20255;-77
2022/07/08 09:58:16;;;;;;;2.45;0.68;;;;;29.00;103032.00;;;;5035849;28;20208;-78
2022/07/08 10:00:44;;;;;;;3.70;0.82;;;;;29.10;103024.00;;;;5030168;28;20246;-78
2022/07/08 10:03:15;;;;;;;1.42;0.70;;;;;29.20;103020.00;;;;5030733;28;20204;-78
2022/07/08 10:05:43;;;;;;;3.83;0.88;;;;;29.30;103020.00;;;;5039713;28;20208;-79
2022/07/08 10:08:11;;;;;;;1.90;0.57;;;;;29.30;103018.00;;;;5030411;28;20200;-79
2022/07/08 10:10:41;;;;;;;1.10;0.43;;;;;29.30;103018.00;;;;5029992;28;20204;-78
2022/07/08 10:13:09;;;;;;;1.80;0.88;;;;;29.30;103018.00;;;;5045892;28;20206;-79
2022/07/08 10:15:38;;;;;;;2.20;0.57;;;;;29.30;103017.00;;;;5040826;28;20215;-79
2022/07/08 10:18:11;;;;;;;1.35;0.75;;;;;29.40;103017.00;;;;5028637;28;20196;-82
2022/07/08 10:20:42;;;;;;;3.33;0.80;;;;;29.50;103021.00;;;;5035785;28;20200;-80
2022/07/08 10:23:15;;;;;;;5.70;1.30;;;;;29.60;103019.00;;;;5049634;28;20688;-81
2022/07/08 10:25:44;;;;;;;2.60;0.70;;;;;29.70;103023.00;;;;5031286;28;20207;-82
2022/07/08 10:28:12;;;;;;;2.05;1.00;;;;;29.80;103025.00;;;;5031023;28;20209;-81
2022/07/08 10:30:51;;;;;;;2.83;0.80;;;;;29.70;103025.00;;;;5032773;28;20199;-81
2022/07/08 10:33:20;;;;;;;3.70;0.90;;;;;29.70;103023.00;;;;5031089;28;21142;-80
2022/07/08 10:36:05;;;;;;;1.85;0.70;;;;;29.60;103023.00;;;;5031743;28;20232;-80
2022/07/08 10:38:35;;;;;;;3.53;1.08;;;;;29.60;103021.00;;;;5035379;28;20215;-82
2022/07/08 10:41:07;;;;;;;2.78;0.70;;;;;29.60;103019.00;;;;5036760;28;20201;-81
2022/07/08 10:43:35;;;;;;;2.53;0.65;;;;;29.60;103021.00;;;;5032239;28;20790;-80
2022/07/08 10:46:21;;;;;;;1.40;0.55;;;;;29.50;103022.00;;;;5028458;28;20196;-79
2022/07/08 10:48:50;;;;;;;2.88;0.90;;;;;29.60;103024.00;;;;5035725;28;20204;-79
2022/07/08 10:51:57;;;;;;;1.23;0.73;;;;;29.40;103021.00;;;;5027211;28;20203;-80
2022/07/08 10:54:29;;;;;;;1.23;0.55;;;;;29.40;103006.00;;;;5033624;28;20199;-80
2022/07/08 10:57:00;;;;;;;3.30;0.90;;;;;29.50;103010.00;;;;5037122;28;20224;-81
2022/07/08 10:59:29;;;;;;;1.80;0.93;;;;;29.50;103015.00;;;;5030203;28;20213;-82
2022/07/08 11:02:00;;;;;;;2.83;0.68;;;;;29.50;103011.00;;;;5033275;28;20199;-83
2022/07/08 11:04:30;;;;;;;2.80;1.08;;;;;29.50;103013.00;;;;5033100;28;20204;-80
2022/07/08 11:07:15;;;;;;;2.47;1.00;;;;;29.50;103004.00;;;;5031317;28;20207;-80
2022/07/08 11:09:44;;;;;;;3.35;0.93;;;;;29.60;103004.00;;;;5022124;28;20222;-79
2022/07/08 11:12:15;;;;;;;3.20;0.82;;;;;29.50;103007.00;;;;5032804;28;20210;-80
2022/07/08 11:14:44;;;;;;;2.25;0.80;;;;;29.50;103009.00;;;;5037503;28;20201;-81
2022/07/08 11:17:15;;;;;;;2.03;0.88;;;;;29.50;103010.00;;;;5041015;28;20277;-83
2022/07/08 11:19:42;;;;;;;0.85;0.60;;;;;29.50;103010.00;;;;5036745;28;20203;-81
2022/07/08 11:22:11;;;;;;;2.15;0.80;;;;;29.50;103001.00;;;;5031856;28;20235;-82
2022/07/08 11:24:42;;;;;;;2.22;0.90;;;;;29.60;103006.00;;;;5032501;28;20192;-80
2022/07/08 11:27:09;;;;;;;2.88;0.70;;;;;29.60;103004.00;;;;5036001;28;20211;-80
2022/07/08 11:29:49;;;;;;;2.65;1.02;;;;;29.50;103005.00;;;;5028877;28;20208;-79
2022/07/08 11:32:19;;;;;;;2.55;0.77;;;;;29.60;103005.00;;;;5027988;28;20192;-78
2022/07/08 11:34:47;;;;;;;1.33;0.70;;;;;29.60;103007.00;;;;5039536;28;20204;-79
2022/07/08 11:37:15;;;;;;;3.10;0.85;;;;;29.60;103003.00;;;;5041977;28;20231;-78
2022/07/08 11:39:44;;;;;;;1.60;0.75;;;;;29.60;103005.00;;;;5044677;28;21048;-79
2022/07/08 11:42:11;;;;;;;2.70;0.90;;;;;29.60;103007.00;;;;5035658;28;20572;-79
2022/07/08 11:44:40;;;;;;;1.60;0.55;;;;;29.60;103003.00;;;;5028271;28;20227;-78
2022/07/08 11:47:10;;;;;;;4.22;1.30;;;;;29.60;102995.00;;;;5034875;28;20207;-78
2022/07/08 11:49:42;;;;;;;1.67;0.80;;;;;29.60;103002.00;;;;5044420;28;20198;-79
2022/07/08 11:52:10;;;;;;;1.75;0.82;;;;;29.70;103010.00;;;;5041395;28;20258;-79
2022/07/08 11:54:38;;;;;;;1.65;0.85;;;;;29.70;102996.00;;;;5035411;28;20227;-79
2022/07/08 11:57:06;;;;;;;3.17;1.02;;;;;29.70;102996.00;;;;5036500;28;20729;-80
2022/07/08 11:59:35;;;;;;;4.35;0.98;;;;;29.80;102992.00;;;;5030068;28;20218;-79
2022/07/08 12:02:06;;;;;;;2.30;0.88;;;;;29.80;102997.00;;;;5030438;28;20211;-79
2022/07/08 12:04:34;;;;;;;0.88;0.65;;;;;29.80;103002.00;;;;5029560;28;20208;-81
2022/07/08 12:07:19;;;;;;;5.85;1.40;;;;;29.80;102997.00;;;;5025291;28;20204;-81
2022/07/08 12:09:55;;;;;;;1.95;0.80;;;;;29.70;102992.00;;;;5028633;28;20198;-81
2022/07/08 12:12:23;;;;;;;2.90;0.60;;;;;29.70;102997.00;;;;5028842;28;20192;-81
2022/07/08 12:14:51;;;;;;;0.60;0.50;;;;;29.70;103002.00;;;;5028492;28;20207;-81
2022/07/08 12:17:26;;;;;;;2.08;0.63;;;;;29.70;102995.00;;;;5035197;28;20708;-82
2022/07/08 12:19:53;;;;;;;4.50;0.70;;;;;29.80;102983.00;;;;5037835;28;20210;-82
2022/07/08 12:22:43;;;;;;;1.77;0.43;;;;;29.70;102985.00;;;;5032785;28;20203;-81